DADOS DO TEMPO

ONTEM
Time Temp. Dewp. Hum. Bar. 1h Prec. 24h Prec.
00:00 -0.5 -8 53 1024.2 0.0000 0.0000
00:09 -0.5 -8 53 1024.4 0.0000 0.0000
00:29 -0.7 -8.2 53 1024.7 0.0000 0.0000
00:40 -0.7 -8.2 53 1024.7 0.0000 0.0000
00:50 -0.7 -8.2 53 1024.9 0.0000 0.0000
01:00 -0.7 -8.2 53 1024.9 0.0000 0.0000
01:10 -0.8 -8.3 53 1025 0.0000 0.0000
01:20 -1 -8.2 54 1025.1 0.0000 0.0000
01:30 -1.2 -8.4 54 1025.2 0.0000 0.0000
01:40 -1.4 -8.2 56 1025.3 0.0000 0.0000
01:51 -1.6 -8.4 56 1025.4 0.0000
02:01 -1.7 -8.3 57 1025.4 0.0000 0.0000
02:11 -1.7 -8.3 57 1025.4 0.0000 0.0000
02:21 -1.8 -8.2 58 1025.6 0.0000 0.0000
02:31 -1.9 -8.3 58 1025.9 0.0000 0.0000
02:41 -2 -8.2 59 1025.8 0.0000 0.0000
02:51 -2.1 -8.3 59 1025.9 0.0000 0.0000
03:02 -2.2 -8.4 59 1025.9 0.0000 0.0000
03:12 -2.3 -8.3 60 1026 0.0000 0.0000
03:21 -2.3 -8.1 61 1026 0.0000 0.0000
03:31 -2.3 -8.1 61 1026.1 0.0000 0.0000
03:42 -2.4 -8.2 61 1026.3 0.0000 0.0000
03:52 -2.4 -8 62 1026.5 0.0000 0.0000
04:02 -2.4 -8 62 1026.7 0.0000 0.0000
04:12 -2.4 -8 62 1026.6 0.0000 0.0000
04:23 -2.3 -7.9 62 1026.7 0.0000 0.0000
04:32 -2.2 -7.8 62 1026.8 0.0000 0.0000
04:42 -2.2 -8 61 1027 0.0000 0.0000
04:53 -2.2 -8 61 1027.1 0.0000 0.0000
05:03 -2.1 -7.7 62 1027.1 0.0000 0.0000
05:13 -2.1 -7.7 62 1027.3 0.0000 0.0000
05:23 -2.1 -7.7 62 1027.3 0.0000 0.0000
05:34 -2 -7.6 62 1027.4 0.0000 0.0000
05:43 -2 -7.6 62 1027.5 0.0000 0.0000
05:53 -2 -7.6 62 1027.6 0.0000 0.0000
06:04 -2.2 -7.6 63 1027.8 0.0000 0.0000
06:14 -2.3 -7.7 63 1027.7 0.0000 0.0000
06:24 -2.3 -7.5 64 1028 0.0000 0.0000
06:34 -2.4 -7.4 65 1027.9 0.0000 0.0000
06:44 -2.4 -7.6 64 1028.2 0.0000 0.0000
06:54 -2.5 -7.4 66 1028.6 0.0000 0.0000
07:04 -2.3 -7.2 66 1028.6 0.0000 0.0000
07:14 -2.2 -7.2 65 1028.7 0.0000 0.0000
07:25 -2 -7.1 65 1028.8 0.0000 0.0000
07:35 -1.8 -6.9 65 1028.7 0.0000 0.0000
07:44 -1.6 -6.7 65 1028.9 0.0000 0.0000
07:55 -1.2 -6.5 64 1029.1 0.0000 0.0000
08:05 -0.7 -6 64 1029.1 0.0000 0.0000
08:15 -0.4 -5.7 64 1029.3 0.0000 0.0000
08:25 -0.2 -5.7 63 1029.5 0.0000 0.0000
08:36 0.1 -5.4 63 1029.5 0.0000 0.0000
08:46 0.5 -5.3 62 1029.6 0.0000 0.0000
08:55 0.9 -5.1 61 1029.6 0.0000 0.0000
09:05 1.3 -4.8 61 1029.6 0.0000 0.0000
09:16 1.7 -4.6 60 1029.6 0.0000 0.0000
09:26 2 -4.4 60 1029.8 0.0000 0.0000
09:36 2.4 -4.2 59 1029.8 0.0000 0.0000
09:47 3 -3.7 59 1030 0.0000 0.0000
09:56 3.5 -3.7 57 1030.1 0.0000 0.0000
10:06 3.8 -3.7 56 1030.1 0.0000 0.0000
10:16 4.2 -3.4 56 1030.1 0.0000 0.0000
10:27 4.9 -2.8 56 1030 0.0000 0.0000
10:37 5.4 -2.6 55 1030.2 0.0000 0.0000
10:47 5.8 -2.2 55 1030.3 0.0000 0.0000
10:57 6 -2.3 54 1030.3 0.0000 0.0000
11:07 6.1 -2.2 54 1030.2 0.0000 0.0000
11:17 6.2 -1.9 55 1030.2 0.0000 0.0000
11:27 6.4 -1.7 55 1030.2 0.0000 0.0000
11:38 6.5 -1.7 55 1030.4 0.0000 0.0000
11:47 6.6 -1.6 55 1030.3 0.0000 0.0000
11:57 6.7 -1.3 56 1030.2 0.0000 0.0000
12:07 6.7 -1.3 56 1030.3 0.0000 0.0000
12:18 6.7 -0.9 58 1030.5 0.0000 0.0000
12:28 6.9 -0.7 58 1030.3 0.0000 0.0000
12:38 7.1 -0.5 58 1030.4 0.0000 0.0000
12:48 7.3 -0.4 58 1030.2 0.0000 0.0000
12:58 7.5 0 59 1030.1 0.0000 0.0000
13:08 7.7 0.2 59 1030.1 0.0000 0.0000
13:18 7.8 0.3 59 1030.1 0.0000 0.0000
13:28 7.9 0.4 59 1030.1 0.0000 0.0000
13:38 8 0.5 59 1030.1 0.0000 0.0000
13:48 8.3 0.8 59 1030 0.0000 0.0000
13:59 8.5 1 59 1030 0.0000 0.0000
14:09 8.6 0.8 58 1030.1 0.0000 0.0000
14:18 8.6 1 59 1030 0.0000 0.0000
14:28 8.9 1.3 59 1030 0.0000 0.0000
14:39 9.1 1.3 58 1030.1 0.0000 0.0000
14:49 9.4 1.6 58 1029.8 0.0000 0.0000
14:58 9.7 1.8 58 1029.7 0.0000 0.0000
15:09 9.8 1.7 57 1029.7 0.0000 0.0000
15:19 9.7 1.8 58 1029.6 0.0000 0.0000
15:29 9.6 2 59 1029.5 0.0000 0.0000
15:39 9.5 2.1 60 1029.4 0.0000 0.0000
15:49 9.4 2.3 61 1029.4 0.0000 0.0000
15:59 9.3 2.4 62 1029.2 0.0000 0.0000
16:09 9.1 2.2 62 1029.3 0.0000 0.0000
16:20 9.1 2.4 63 1029.1 0.0000 0.0000
16:30 9 2.6 64 1029.2 0.0000 0.0000
16:40 8.9 2.7 65 1029.1 0.0000 0.0000
16:49 9 3 66 1029 0.0000 0.0000
17:00 9 3 66 1028.8 0.0000 0.0000
17:10 9 3.2 67 1028.9 0.0000 0.0000
17:20 9 3.2 67 1028.8 0.0000 0.0000
17:30 8.9 3.1 67 1028.7 0.0000 0.0000
17:41 8.8 3.2 68 1028.6 0.0000 0.0000
17:50 8.7 3.1 68 1028.5 0.0000 0.0000
18:00 8.7 3.3 69 1028.4 0.0000 0.0000
18:11 8.6 3.2 69 1028.4 0.0000 0.0000
18:21 8.5 3.3 70 1028.5 0.0000 0.0000
18:31 8.5 3.3 70 1028.3 0.0000 0.0000
18:41 8.4 3.5 71 1028.5 0.0000 0.0000
18:51 8.3 3.4 71 1028.5 0.0000 0.0000
19:01 8.2 3.3 71 1028.4 0.0000 0.0000
19:11 8.1 3.4 72 1028.3 0.0000 0.0000
19:21 8 3.5 73 1028.6 0.0000 0.0000
19:32 8 3.7 74 1028.4 0.0000 0.0000
19:42 7.9 3.6 74 1028.4 0.0000 0.0000
19:51 7.8 3.7 75 1028.5 0.0000 0.0000
20:02 7.7 3.6 75 1028.6 0.0000 0.0000
20:12 7.6 3.6 76 1028.6 0.0000 0.0000
20:22 7.5 3.5 76 1028.8 0.0000 0.0000
20:32 7.4 3.6 77 1028.8 0.0000 0.0000
20:42 7.4 3.6 77 1028.9 0.0000 0.0000
20:52 7.3 3.5 77 1028.9 0.0000 0.0000
21:02 7.3 3.7 78 1028.9 0.0000 0.0000
21:13 7.3 3.7 78 1028.7 0.0000 0.0000
21:23 7.2 3.6 78 1028.7 0.0000 0.0000
21:32 7.1 3.5 78 1028.6 0.0000 0.0000
21:42 7.1 3.5 78 1028.5 0.0000 0.0000
21:53 7 3.4 78 1028.5 0.0000 0.0000
22:03 7 3.6 79 1028.5 0.0000 0.0000
22:13 6.9 3.5 79 1028.5 0.0000 0.0000
22:23 6.8 3.4 79 1028.5 0.0000 0.0000
22:33 6.8 3.4 79 1028.5 0.0000 0.0000
22:43 6.6 3.2 79 1028.4 0.0000 0.0000
22:53 6.5 3.1 79 1028.5 0.0000 0.0000
23:04 6.3 2.9 79 1028.4 0.0000 0.0000
23:14 6.2 2.8 79 1028.5 0.0000 0.0000
23:24 6 2.6 79 1028.4 0.0000 0.0000
23:34 5.9 2.7 80 1028.5 0.0000 0.0000
23:44 5.7 2.5 80 1028.5 0.0000 0.0000
23:54 5.6 2.4 80 1028.5 0.0000 0.0000

ESTATÍSTICAS DO DIA

2020-04-05
TEMPERATURA
MÉDIA
3.9
MÁXIMO
9.8
15:09
MÍNIMO
-2.5
06:54
PRESSÃO
MÉDIA
1028.4
MÁXIMO
1030.5
12:18
MÍNIMO
1024.2
00:00
PONTO DE ORVALHO
MÉDIA
-2.0
MÁXIMO
3.7
19:32
MÍNIMO
-8.4
01:30
UMIDADE
MÉDIA
64
MÁXIMO
80
23:34
MÍNIMO
53
00:00
PRECIPITAÇÃO
PRECIPITAÇÃO HORÁRIA
0.0
PRECIPITAÇÃO DIÁRIA
0.0
TEMPERATURA (°C)
MÍNIMO
-2.5
MÁXIMO
9.8
MÉDIA
3.9
PRESSÃO (hpa)
MÍNIMO
1024.2
MÁXIMO
1030.5
MÉDIA
1028.4
DEVICE